createdAt,value
2018-05-17T00:02:10.908Z,31.07
2018-05-17T00:04:45.967Z,31.04
2018-05-17T00:07:22.807Z,30.99
2018-05-17T00:09:59.151Z,30.96
2018-05-17T00:12:33.399Z,30.93
2018-05-17T00:15:06.940Z,31.04
2018-05-17T00:17:40.321Z,30.96
2018-05-17T00:20:16.114Z,30.91
2018-05-17T00:22:53.525Z,30.90
2018-05-17T00:25:26.871Z,31.01
2018-05-17T00:28:01.768Z,31.07
2018-05-17T00:30:35.281Z,31.11
2018-05-17T00:35:54.488Z,31.00
2018-05-17T00:38:26.910Z,31.05
2018-05-17T00:40:59.505Z,31.01
2018-05-17T00:43:31.411Z,30.97
2018-05-17T00:46:07.115Z,31.05
2018-05-17T00:48:44.488Z,31.02
2018-05-17T00:51:22.479Z,30.95
2018-05-17T00:53:58.522Z,31.00
2018-05-17T00:56:29.874Z,31.02
2018-05-17T00:59:06.256Z,31.03
2018-05-17T01:01:42.249Z,30.99
2018-05-17T01:04:17.684Z,30.88
2018-05-17T01:06:48.106Z,30.89
2018-05-17T01:09:21.055Z,30.97
2018-05-17T01:11:54.458Z,30.99
2018-05-17T01:14:30.772Z,30.98
2018-05-17T01:17:02.178Z,31.02
2018-05-17T01:19:36.426Z,30.95
2018-05-17T01:22:08.359Z,31.01
2018-05-17T01:24:42.118Z,30.96
2018-05-17T01:30:01.399Z,30.96
2018-05-17T01:32:40.799Z,30.90
2018-05-17T01:35:18.266Z,30.88
2018-05-17T01:38:01.467Z,30.79
2018-05-17T01:40:32.314Z,30.93
2018-05-17T01:43:04.478Z,30.83
2018-05-17T01:45:40.531Z,30.80
2018-05-17T01:48:17.363Z,30.78
2018-05-17T01:50:48.636Z,30.87
2018-05-17T01:53:19.960Z,30.81
2018-05-17T01:55:56.104Z,30.85
2018-05-17T01:58:26.922Z,30.82
2018-05-17T02:00:59.024Z,30.78
2018-05-17T02:03:30.736Z,30.72
2018-05-17T02:06:07.110Z,30.72
2018-05-17T02:08:42.761Z,30.68
2018-05-17T02:11:18.564Z,30.72
2018-05-17T02:13:49.915Z,30.70
2018-05-17T02:16:24.237Z,30.69
2018-05-17T02:19:00.561Z,30.75
2018-05-17T02:21:34.206Z,30.71
2018-05-17T02:24:11.023Z,30.65
2018-05-17T02:26:44.270Z,30.66
2018-05-17T02:29:20.197Z,30.68
2018-05-17T02:31:57.186Z,30.63
2018-05-17T02:34:32.443Z,30.68
2018-05-17T02:37:13.576Z,30.55
2018-05-17T02:39:48.951Z,30.64
2018-05-17T02:42:22.665Z,30.63
2018-05-17T02:44:55.871Z,30.61
2018-05-17T02:47:35.344Z,30.54
2018-05-17T02:50:07.464Z,30.56
2018-05-17T02:52:37.739Z,30.58
2018-05-17T02:55:12.883Z,30.54
2018-05-17T02:57:47.014Z,30.58
2018-05-17T03:00:19.828Z,30.43
2018-05-17T03:02:53.900Z,30.44
2018-05-17T03:05:33.118Z,30.24
2018-05-17T03:08:08.411Z,29.98
2018-05-17T03:10:40.233Z,29.87
2018-05-17T03:13:13.175Z,29.73
2018-05-17T03:15:51.479Z,29.61
2018-05-17T03:18:26.794Z,29.52
2018-05-17T03:20:58.644Z,29.38
2018-05-17T03:23:32.728Z,29.35
2018-05-17T03:26:05.504Z,29.32
2018-05-17T03:28:37.572Z,29.26
2018-05-17T03:31:10.238Z,29.18
2018-05-17T03:33:45.181Z,29.10
2018-05-17T03:36:15.832Z,29.04
2018-05-17T03:38:49.036Z,29.03
2018-05-17T03:41:24.309Z,28.98
2018-05-17T03:43:57.849Z,28.91
2018-05-17T03:46:34.767Z,28.85
2018-05-17T03:49:10.370Z,28.77
2018-05-17T03:51:43.522Z,28.71
2018-05-17T03:54:18.233Z,28.71
2018-05-17T03:56:53.285Z,28.66
2018-05-17T03:59:28.984Z,28.67
2018-05-17T04:02:11.478Z,28.62
2018-05-17T04:04:57.581Z,28.55
2018-05-17T04:07:31.090Z,28.58
2018-05-17T04:10:06.176Z,28.48
2018-05-17T04:12:41.055Z,28.48
2018-05-17T04:15:12.903Z,28.37
2018-05-17T04:17:47.790Z,28.38
2018-05-17T04:20:21.219Z,28.32
2018-05-17T04:22:53.188Z,28.32
2018-05-17T04:25:26.719Z,28.28
2018-05-17T04:28:09.849Z,28.24
2018-05-17T04:30:45.424Z,28.26
2018-05-17T04:33:21.964Z,28.24
2018-05-17T04:35:59.079Z,28.18
2018-05-17T04:38:30.929Z,28.16
2018-05-17T04:41:04.529Z,28.13
2018-05-17T04:43:39.423Z,28.08
2018-05-17T04:46:17.519Z,28.09
2018-05-17T04:48:52.879Z,28.04
2018-05-17T04:51:25.979Z,28.01
2018-05-17T04:53:57.275Z,27.98
2018-05-17T04:56:38.568Z,27.97
2018-05-17T04:59:12.048Z,27.92
2018-05-17T05:01:48.314Z,27.90
2018-05-17T05:04:22.760Z,27.87
2018-05-17T05:07:06.919Z,27.87
2018-05-17T05:09:42.234Z,27.82
2018-05-17T05:12:16.961Z,27.81
2018-05-17T05:14:48.516Z,27.76
2018-05-17T05:20:11.753Z,27.71
2018-05-17T05:22:44.536Z,27.69
2018-05-17T05:25:27.379Z,27.68
2018-05-17T05:28:03.146Z,27.67
2018-05-17T05:30:33.340Z,27.65
2018-05-17T05:33:06.501Z,27.63
2018-05-17T05:35:40.255Z,27.59
2018-05-17T05:38:25.701Z,27.56
2018-05-17T05:40:59.654Z,27.56
2018-05-17T05:43:36.873Z,27.55
2018-05-17T05:46:14.490Z,27.52
2018-05-17T05:48:48.714Z,27.51
2018-05-17T05:51:22.592Z,27.43
2018-05-17T05:53:55.488Z,27.45
2018-05-17T05:56:28.290Z,27.44
2018-05-17T05:59:02.905Z,27.41
2018-05-17T06:01:44.465Z,27.36
2018-05-17T06:04:18.400Z,27.34
2018-05-17T06:06:50.008Z,27.31
2018-05-17T06:09:26.296Z,27.27
2018-05-17T06:11:59.899Z,27.25
2018-05-17T06:14:31.958Z,27.22
2018-05-17T06:17:03.937Z,27.23
2018-05-17T06:19:35.673Z,27.19
2018-05-17T06:22:09.144Z,27.20
2018-05-17T06:24:43.432Z,27.15
2018-05-17T06:27:18.486Z,27.10
2018-05-17T06:29:54.981Z,27.08
2018-05-17T06:32:28.434Z,27.03
2018-05-17T06:35:02.502Z,26.98
2018-05-17T06:37:34.444Z,26.93
2018-05-17T06:40:09.128Z,26.89
2018-05-17T06:42:42.837Z,26.87
2018-05-17T06:45:18.343Z,26.85
2018-05-17T06:47:50.247Z,26.83
2018-05-17T06:50:22.243Z,26.84
2018-05-17T06:52:55.297Z,26.85
2018-05-17T06:55:27.438Z,26.79
2018-05-17T06:58:04.293Z,26.77
2018-05-17T07:00:38.981Z,26.76
2018-05-17T07:03:09.569Z,26.77
2018-05-17T07:05:40.201Z,26.74
2018-05-17T07:08:11.596Z,26.78
2018-05-17T07:10:43.157Z,26.78
2018-05-17T07:13:12.542Z,26.69
2018-05-17T07:15:44.490Z,26.81
2018-05-17T07:18:17.098Z,26.75
2018-05-17T07:20:48.658Z,26.73
2018-05-17T07:23:19.696Z,26.75
2018-05-17T07:25:52.497Z,26.76
2018-05-17T07:28:24.940Z,26.67
2018-05-17T07:30:57.554Z,26.71
2018-05-17T07:33:27.994Z,26.67
2018-05-17T07:35:59.175Z,26.71
2018-05-17T07:38:28.684Z,26.68
2018-05-17T07:40:59.891Z,26.67
2018-05-17T07:43:29.438Z,26.66
2018-05-17T07:46:00.296Z,26.63
2018-05-17T07:48:33.155Z,26.63
2018-05-17T07:51:04.923Z,26.61
2018-05-17T07:53:35.259Z,26.71
2018-05-17T07:56:07.515Z,26.62
2018-05-17T07:58:38.783Z,26.59
2018-05-17T08:01:10.319Z,26.59
2018-05-17T08:03:40.911Z,26.58
2018-05-17T08:06:10.892Z,26.58
2018-05-17T08:08:42.208Z,26.57
2018-05-17T08:11:14.859Z,26.53
2018-05-17T08:13:47.650Z,26.53
2018-05-17T08:16:17.572Z,26.50
2018-05-17T08:18:49.307Z,26.53
2018-05-17T08:21:20.468Z,26.49
2018-05-17T08:23:53.492Z,26.44
2018-05-17T08:26:23.911Z,26.42
2018-05-17T08:28:56.558Z,26.37
2018-05-17T08:31:27.275Z,26.36
2018-05-17T08:33:58.907Z,26.30
2018-05-17T08:36:28.407Z,26.25
2018-05-17T08:38:59.263Z,26.23
2018-05-17T08:41:32.022Z,26.18
2018-05-17T08:44:04.238Z,26.17
2018-05-17T08:46:37.412Z,26.16
2018-05-17T08:49:08.659Z,26.12
2018-05-17T08:51:40.546Z,26.11
2018-05-17T08:54:11.420Z,26.07
2018-05-17T08:56:42.568Z,26.08
2018-05-17T08:59:14.357Z,26.05
2018-05-17T09:01:46.325Z,26.01
2018-05-17T09:04:21.432Z,25.99
2018-05-17T09:06:57.978Z,25.99
2018-05-17T09:09:28.952Z,25.98
2018-05-17T09:12:00.315Z,25.97
2018-05-17T09:14:30.329Z,25.91
2018-05-17T09:17:06.170Z,25.84
2018-05-17T09:19:38.263Z,25.81
2018-05-17T09:22:09.617Z,25.80
2018-05-17T09:24:41.511Z,25.77
2018-05-17T09:27:10.872Z,25.78
2018-05-17T09:29:42.706Z,25.78
2018-05-17T09:32:13.729Z,25.76
2018-05-17T09:34:44.518Z,25.72
2018-05-17T09:37:14.401Z,25.73
2018-05-17T09:39:46.276Z,25.68
2018-05-17T09:42:18.315Z,25.61
2018-05-17T09:44:49.362Z,25.58
2018-05-17T09:47:19.755Z,25.56
2018-05-17T09:49:50.037Z,25.57
2018-05-17T09:52:21.090Z,25.54
2018-05-17T09:54:53.184Z,25.54
2018-05-17T09:57:23.270Z,25.54
2018-05-17T09:59:52.872Z,25.50
2018-05-17T10:02:26.980Z,25.53
2018-05-17T10:04:58.702Z,25.53
2018-05-17T10:07:29.598Z,25.53
2018-05-17T10:10:00.293Z,25.51
2018-05-17T10:12:31.148Z,25.49
2018-05-17T10:15:06.656Z,25.42
2018-05-17T10:17:37.711Z,25.47
2018-05-17T10:20:08.667Z,25.44
2018-05-17T10:22:38.096Z,25.49
2018-05-17T10:25:09.377Z,25.45
2018-05-17T10:27:40.651Z,25.46
2018-05-17T10:30:09.995Z,25.45
2018-05-17T10:32:40.571Z,25.47
2018-05-17T10:35:11.784Z,25.49
2018-05-17T10:37:41.679Z,25.46
2018-05-17T10:40:14.230Z,25.46
2018-05-17T10:42:46.443Z,25.47
2018-05-17T10:45:17.842Z,25.45
2018-05-17T10:47:47.150Z,25.46
2018-05-17T10:50:17.860Z,25.41
2018-05-17T10:52:51.672Z,25.44
2018-05-17T10:55:23.281Z,25.44
2018-05-17T10:57:56.255Z,25.42
2018-05-17T11:00:25.663Z,25.41
2018-05-17T11:02:57.704Z,25.39
2018-05-17T11:05:34.914Z,25.36
2018-05-17T11:08:04.611Z,25.37
2018-05-17T11:10:36.343Z,25.36
2018-05-17T11:13:07.855Z,25.30
2018-05-17T11:15:38.804Z,25.25
2018-05-17T11:18:09.367Z,25.23
2018-05-17T11:20:41.120Z,25.23
2018-05-17T11:23:11.929Z,25.24
2018-05-17T11:25:42.799Z,25.27
2018-05-17T11:28:14.489Z,25.29
2018-05-17T11:30:47.433Z,25.25
2018-05-17T11:33:18.745Z,25.22
2018-05-17T11:35:48.523Z,25.28
2018-05-17T11:38:20.140Z,25.26
2018-05-17T11:40:52.443Z,25.26
2018-05-17T11:43:22.486Z,25.19
2018-05-17T11:45:52.714Z,25.19
2018-05-17T11:48:24.441Z,25.19
2018-05-17T11:50:56.373Z,25.20
2018-05-17T11:53:28.536Z,25.17
2018-05-17T11:55:59.855Z,25.17
2018-05-17T11:58:30.205Z,25.16
2018-05-17T12:00:59.617Z,25.13
2018-05-17T12:03:30.202Z,25.12
2018-05-17T12:05:59.547Z,25.09
2018-05-17T12:08:31.847Z,25.07
2018-05-17T12:11:08.939Z,25.05
2018-05-17T12:13:38.685Z,25.10
2018-05-17T12:16:10.283Z,25.07
2018-05-17T12:18:40.797Z,25.11
2018-05-17T12:21:13.427Z,25.08
2018-05-17T12:23:44.159Z,25.14
2018-05-17T12:26:16.309Z,25.08
2018-05-17T12:28:48.092Z,25.06
2018-05-17T12:31:17.097Z,25.09
2018-05-17T12:33:48.269Z,25.06
2018-05-17T12:36:18.099Z,25.07
2018-05-17T12:38:49.316Z,25.06
2018-05-17T12:41:19.628Z,25.05
2018-05-17T12:43:49.643Z,25.00
2018-05-17T12:46:19.953Z,24.96
2018-05-17T12:48:51.140Z,24.96
2018-05-17T12:51:21.653Z,24.96
2018-05-17T12:53:54.894Z,24.92
2018-05-17T12:56:26.707Z,24.96
2018-05-17T12:58:56.684Z,24.92
2018-05-17T13:01:27.457Z,24.91
2018-05-17T13:03:59.591Z,24.91
2018-05-17T13:06:29.855Z,24.91
2018-05-17T13:08:59.741Z,24.92
2018-05-17T13:11:30.131Z,24.93
2018-05-17T13:14:01.307Z,24.89
2018-05-17T13:16:31.915Z,24.88
2018-05-17T13:19:01.398Z,24.90
2018-05-17T13:21:32.784Z,24.90
2018-05-17T13:24:03.064Z,24.90
2018-05-17T13:26:34.788Z,24.89
2018-05-17T13:29:05.723Z,24.93
2018-05-17T13:31:35.977Z,24.94
2018-05-17T13:34:07.652Z,24.94
2018-05-17T13:36:38.167Z,24.91
2018-05-17T13:39:08.870Z,24.93
2018-05-17T13:41:39.000Z,24.94
2018-05-17T13:44:11.270Z,24.94
2018-05-17T13:46:41.321Z,24.95
2018-05-17T13:49:12.157Z,24.99
2018-05-17T13:51:44.226Z,24.97
2018-05-17T13:54:20.609Z,24.96
2018-05-17T13:56:50.072Z,24.95
2018-05-17T13:59:20.865Z,24.99
2018-05-17T14:01:52.209Z,24.96
2018-05-17T14:04:23.950Z,24.92
2018-05-17T14:06:54.312Z,24.91
2018-05-17T14:09:26.777Z,24.93
2018-05-17T14:11:57.787Z,24.92
2018-05-17T14:14:29.289Z,24.92
2018-05-17T14:17:02.918Z,24.91
2018-05-17T14:19:34.262Z,24.89
2018-05-17T14:22:06.625Z,24.89
2018-05-17T14:24:38.484Z,24.90
2018-05-17T14:27:09.675Z,24.89
2018-05-17T14:29:41.784Z,24.91
2018-05-17T14:32:12.782Z,24.88
2018-05-17T14:34:43.551Z,24.91
2018-05-17T14:37:12.826Z,24.88
2018-05-17T14:39:44.863Z,24.86
2018-05-17T14:42:15.804Z,24.87
2018-05-17T14:44:47.679Z,24.87
2018-05-17T14:47:19.754Z,24.89
2018-05-17T14:49:50.967Z,24.91
2018-05-17T14:52:20.850Z,24.84
2018-05-17T14:54:52.569Z,24.85
2018-05-17T14:57:23.102Z,24.84
2018-05-17T14:59:53.945Z,24.88
2018-05-17T15:02:26.320Z,24.86
2018-05-17T15:04:57.650Z,24.87
2018-05-17T15:07:33.123Z,24.87
2018-05-17T15:10:05.397Z,24.82
2018-05-17T15:12:38.481Z,24.81
2018-05-17T15:15:09.148Z,24.82
2018-05-17T15:17:41.292Z,24.84
2018-05-17T15:20:13.356Z,24.85
2018-05-17T15:22:43.570Z,24.82
2018-05-17T15:25:13.275Z,24.82
2018-05-17T15:27:44.563Z,24.80
2018-05-17T15:30:15.015Z,24.81
2018-05-17T15:32:46.426Z,24.80
2018-05-17T15:35:18.563Z,24.78
2018-05-17T15:37:48.850Z,24.78
2018-05-17T15:40:19.704Z,24.79
2018-05-17T15:42:50.767Z,24.81
2018-05-17T15:45:21.147Z,24.79
2018-05-17T15:47:51.732Z,24.77
2018-05-17T15:50:21.336Z,24.75
2018-05-17T15:52:52.858Z,24.74
2018-05-17T15:55:24.618Z,24.71
2018-05-17T15:57:53.878Z,24.71
2018-05-17T16:00:30.810Z,24.67
2018-05-17T16:03:02.342Z,24.68
2018-05-17T16:05:38.296Z,24.71
2018-05-17T16:08:13.797Z,24.71
2018-05-17T16:10:46.492Z,24.73
2018-05-17T16:13:18.330Z,24.71
2018-05-17T16:15:48.129Z,24.74
2018-05-17T16:18:18.501Z,24.70
2018-05-17T16:20:50.976Z,24.67
2018-05-17T16:23:21.831Z,24.70
2018-05-17T16:25:53.880Z,24.70
2018-05-17T16:28:24.563Z,24.70
2018-05-17T16:30:57.295Z,24.67
2018-05-17T16:33:28.007Z,24.70
2018-05-17T16:35:58.776Z,24.67
2018-05-17T16:38:29.859Z,24.70
2018-05-17T16:40:59.847Z,24.70
2018-05-17T16:43:29.189Z,24.73
2018-05-17T16:46:06.961Z,24.70
2018-05-17T16:48:38.736Z,24.78
2018-05-17T16:51:09.761Z,24.77
2018-05-17T16:53:39.885Z,24.76
2018-05-17T16:56:10.199Z,24.72
2018-05-17T16:58:40.736Z,24.75
2018-05-17T17:01:12.991Z,24.78
2018-05-17T17:03:43.023Z,24.74
2018-05-17T17:06:14.385Z,24.75
2018-05-17T17:08:46.550Z,24.74
2018-05-17T17:11:17.246Z,24.74
2018-05-17T17:13:49.124Z,24.73
2018-05-17T17:16:19.773Z,24.75
2018-05-17T17:18:49.476Z,24.71
2018-05-17T17:21:20.295Z,24.71
2018-05-17T17:23:51.254Z,24.72
2018-05-17T17:26:23.365Z,24.69
2018-05-17T17:28:55.561Z,24.68
2018-05-17T17:31:25.291Z,24.69
2018-05-17T17:33:57.020Z,24.70
2018-05-17T17:36:26.408Z,24.75
2018-05-17T17:38:58.288Z,24.72
2018-05-17T17:41:28.506Z,24.70
2018-05-17T17:43:58.228Z,24.72
2018-05-17T17:46:28.913Z,24.74
2018-05-17T17:49:00.261Z,24.69
2018-05-17T17:51:31.328Z,24.69
2018-05-17T17:54:02.550Z,24.69
2018-05-17T17:56:32.926Z,24.68
2018-05-17T17:59:03.388Z,24.69
2018-05-17T18:01:35.276Z,24.67
2018-05-17T18:04:10.238Z,24.67
2018-05-17T18:06:40.976Z,24.65
2018-05-17T18:09:12.815Z,24.65
2018-05-17T18:11:43.309Z,24.67
2018-05-17T18:14:15.471Z,24.67
2018-05-17T18:16:48.178Z,24.66
2018-05-17T18:19:19.694Z,24.66
2018-05-17T18:21:50.243Z,24.68
2018-05-17T18:24:21.302Z,24.64
2018-05-17T18:26:53.234Z,24.63
2018-05-17T18:29:27.647Z,24.62
2018-05-17T18:31:58.000Z,24.61
2018-05-17T18:34:27.945Z,24.60
2018-05-17T18:36:59.342Z,24.58
2018-05-17T18:39:31.366Z,24.57
2018-05-17T18:42:02.560Z,24.56
2018-05-17T18:44:39.277Z,24.58
2018-05-17T18:47:09.312Z,24.53
2018-05-17T18:49:39.484Z,24.55
2018-05-17T18:52:10.019Z,24.57
2018-05-17T18:54:39.387Z,24.62
2018-05-17T18:57:09.492Z,24.67
2018-05-17T18:59:38.968Z,24.70
2018-05-17T19:02:09.286Z,24.71
2018-05-17T19:04:40.190Z,24.74
2018-05-17T19:07:09.674Z,24.74
2018-05-17T19:09:39.150Z,24.77
2018-05-17T19:12:09.159Z,24.73
2018-05-17T19:14:39.931Z,24.74
2018-05-17T19:17:10.528Z,24.72
2018-05-17T19:19:41.445Z,24.66
2018-05-17T19:22:13.825Z,24.70
2018-05-17T19:24:46.290Z,24.69
2018-05-17T19:27:18.016Z,24.74
2018-05-17T19:29:49.544Z,24.78
2018-05-17T19:32:20.418Z,24.75
2018-05-17T19:34:51.715Z,24.78
2018-05-17T19:37:22.466Z,24.81
2018-05-17T19:39:53.120Z,24.78
2018-05-17T19:42:24.526Z,24.81
2018-05-17T19:58:05.485Z,24.88
2018-05-17T20:00:36.568Z,24.85
2018-05-17T20:03:08.666Z,24.86
2018-05-17T20:05:38.108Z,24.80
2018-05-17T20:08:09.502Z,24.74
2018-05-17T20:10:38.970Z,24.76
2018-05-17T20:13:08.562Z,24.79
2018-05-17T20:15:40.621Z,24.78
2018-05-17T20:18:10.649Z,24.79
2018-05-17T20:20:41.384Z,24.82
2018-05-17T20:23:13.725Z,24.79
2018-05-17T20:25:45.675Z,24.80
2018-05-17T20:28:16.205Z,24.82
2018-05-17T20:30:47.894Z,24.83
2018-05-17T20:33:20.136Z,24.81
2018-05-17T20:35:51.990Z,24.86
2018-05-17T20:38:26.611Z,24.85
2018-05-17T20:40:59.070Z,24.87
2018-05-17T20:43:30.113Z,24.88
2018-05-17T20:46:00.655Z,24.83
2018-05-17T20:48:33.026Z,24.83
2018-05-17T20:51:06.995Z,24.91
2018-05-17T20:53:37.011Z,24.88
2018-05-17T20:56:08.046Z,24.94
2018-05-17T20:58:40.610Z,24.90
2018-05-17T21:01:12.290Z,24.93
2018-05-17T21:03:44.099Z,24.88
2018-05-17T21:06:18.035Z,24.90
2018-05-17T21:08:49.098Z,24.89
2018-05-17T21:11:20.007Z,24.89
2018-05-17T21:13:51.044Z,24.93
2018-05-17T21:16:21.827Z,24.88
2018-05-17T21:18:55.680Z,24.96
2018-05-17T21:21:31.083Z,24.92
2018-05-17T21:24:08.058Z,24.92
2018-05-17T21:26:42.958Z,24.98
2018-05-17T21:29:19.385Z,24.98
2018-05-17T21:31:50.511Z,24.94
2018-05-17T21:34:20.611Z,24.95
2018-05-17T21:36:51.058Z,25.02
2018-05-17T21:39:23.323Z,24.95
2018-05-17T21:41:56.987Z,25.03
2018-05-17T21:44:33.113Z,24.92
2018-05-17T21:47:05.707Z,24.99
2018-05-17T21:49:41.157Z,24.98
2018-05-17T21:52:12.472Z,24.99
2018-05-17T21:54:44.624Z,24.96
2018-05-17T21:57:18.265Z,24.98
2018-05-17T21:59:54.341Z,24.99
2018-05-17T22:02:27.433Z,25.03
2018-05-17T22:04:59.634Z,25.00
2018-05-17T22:07:32.054Z,25.04
2018-05-17T22:10:03.130Z,25.05
2018-05-17T22:12:37.831Z,25.06
2018-05-17T22:15:13.656Z,25.05
2018-05-17T22:17:45.947Z,25.02
2018-05-17T22:20:18.216Z,25.03
2018-05-17T22:22:49.586Z,24.97
2018-05-17T22:25:21.677Z,25.03
2018-05-17T22:27:53.795Z,25.06
2018-05-17T22:30:26.872Z,25.06
2018-05-17T22:33:00.253Z,25.05
2018-05-17T22:35:35.272Z,25.02
2018-05-17T22:38:07.330Z,24.95
2018-05-17T22:40:44.477Z,24.94
2018-05-17T22:43:17.451Z,24.94
2018-05-17T22:45:52.913Z,24.96
2018-05-17T22:48:28.067Z,24.96
2018-05-17T22:51:02.327Z,24.94
2018-05-17T22:53:33.902Z,24.95
2018-05-17T22:56:08.049Z,24.96
2018-05-17T22:58:43.777Z,24.95
2018-05-17T23:01:25.522Z,24.94
2018-05-17T23:04:05.900Z,24.94
2018-05-17T23:06:42.626Z,24.96
2018-05-17T23:09:16.715Z,24.97
2018-05-17T23:11:48.544Z,24.96
2018-05-17T23:14:25.769Z,24.98
2018-05-17T23:17:00.626Z,24.99
2018-05-17T23:19:34.351Z,25.04
2018-05-17T23:22:11.222Z,25.03
2018-05-17T23:24:44.205Z,25.01
2018-05-17T23:27:19.885Z,25.04
2018-05-17T23:29:54.623Z,25.04
2018-05-17T23:32:31.679Z,25.04
2018-05-17T23:35:02.178Z,25.09
2018-05-17T23:37:33.181Z,25.07
2018-05-17T23:40:18.054Z,25.07
2018-05-17T23:42:50.835Z,25.09
2018-05-17T23:45:21.518Z,25.09
2018-05-17T23:47:52.636Z,25.09
2018-05-17T23:50:23.795Z,25.12
2018-05-17T23:52:55.355Z,25.04
2018-05-17T23:55:28.663Z,25.04
2018-05-17T23:58:00.175Z,25.10
